createdAt,value
2018-04-17T00:00:37.423Z,87.17
2018-04-17T00:03:05.096Z,87.34
2018-04-17T00:05:33.788Z,86.75
2018-04-17T00:08:01.461Z,86.67
2018-04-17T00:10:29.130Z,86.75
2018-04-17T00:12:56.777Z,87.24
2018-04-17T00:15:24.403Z,87.09
2018-04-17T00:17:52.028Z,87.50
2018-04-17T00:20:19.680Z,87.72
2018-04-17T00:22:47.314Z,87.36
2018-04-17T00:25:14.890Z,87.40
2018-04-17T00:27:42.532Z,87.44
2018-04-17T00:30:10.129Z,87.40
2018-04-17T00:32:37.773Z,87.34
2018-04-17T00:35:05.390Z,87.44
2018-04-17T00:37:33.024Z,87.41
2018-04-17T00:40:00.742Z,87.08
2018-04-17T00:42:28.343Z,87.42
2018-04-17T00:44:56.192Z,87.29
2018-04-17T00:47:23.888Z,88.43
2018-04-17T00:49:51.489Z,88.30
2018-04-17T00:52:19.178Z,88.30
2018-04-17T00:54:46.878Z,87.36
2018-04-17T00:57:14.489Z,87.58
2018-04-17T00:59:42.120Z,88.48
2018-04-17T01:02:09.809Z,88.07
2018-04-17T01:04:37.440Z,87.60
2018-04-17T01:07:05.090Z,87.32
2018-04-17T01:09:32.700Z,87.45
2018-04-17T01:12:00.341Z,87.96
2018-04-17T01:14:27.971Z,88.17
2018-04-17T01:16:55.635Z,88.29
2018-04-17T01:19:23.296Z,87.79
2018-04-17T01:21:50.885Z,87.64
2018-04-17T01:24:18.584Z,87.51
2018-04-17T01:26:46.184Z,87.66
2018-04-17T01:29:13.786Z,87.86
2018-04-17T01:31:41.448Z,88.04
2018-04-17T01:34:09.033Z,87.80
2018-04-17T01:36:36.734Z,87.84
2018-04-17T01:39:04.479Z,87.52
2018-04-17T01:41:32.121Z,87.61
2018-04-17T01:43:59.746Z,88.07
2018-04-17T01:46:27.425Z,87.44
2018-04-17T01:48:55.061Z,87.13
2018-04-17T01:51:22.635Z,87.79
2018-04-17T01:53:50.292Z,87.93
2018-04-17T01:56:17.971Z,87.70
2018-04-17T01:58:45.691Z,88.37
2018-04-17T02:01:13.311Z,88.53
2018-04-17T02:03:41.451Z,88.18
2018-04-17T02:06:09.071Z,88.08
2018-04-17T02:08:36.664Z,88.25
2018-04-17T02:11:04.339Z,88.15
2018-04-17T02:13:32.418Z,88.15
2018-04-17T02:15:59.999Z,88.12
2018-04-17T02:18:27.662Z,88.12
2018-04-17T02:20:55.231Z,88.07
2018-04-17T02:23:22.847Z,87.89
2018-04-17T02:25:50.636Z,88.23
2018-04-17T02:28:18.255Z,88.20
2018-04-17T02:30:46.261Z,88.59
2018-04-17T02:33:13.895Z,88.71
2018-04-17T02:35:41.479Z,88.48
2018-04-17T02:38:09.135Z,88.77
2018-04-17T02:40:37.226Z,89.07
2018-04-17T02:43:04.827Z,89.04
2018-04-17T02:45:33.221Z,89.12
2018-04-17T02:48:00.847Z,89.50
2018-04-17T02:50:28.538Z,89.43
2018-04-17T02:52:56.214Z,89.02
2018-04-17T02:55:23.812Z,88.87
2018-04-17T02:57:51.472Z,88.90
2018-04-17T03:00:19.125Z,88.21
2018-04-17T03:02:46.764Z,89.07
2018-04-17T03:05:14.449Z,88.35
2018-04-17T03:07:42.050Z,89.19
2018-04-17T03:10:09.638Z,88.97
2018-04-17T03:12:37.275Z,88.47
2018-04-17T03:15:04.925Z,88.53
2018-04-17T03:17:32.610Z,88.33
2018-04-17T03:20:00.263Z,87.92
2018-04-17T03:22:27.888Z,87.97
2018-04-17T03:24:55.484Z,88.40
2018-04-17T03:27:23.204Z,88.42
2018-04-17T03:29:50.822Z,88.03
2018-04-17T03:32:18.514Z,88.30
2018-04-17T03:34:46.136Z,88.58
2018-04-17T03:37:13.852Z,88.56
2018-04-17T03:39:41.496Z,88.72
2018-04-17T03:42:09.169Z,88.06
2018-04-17T03:44:36.860Z,88.42
2018-04-17T03:47:04.460Z,89.29
2018-04-17T03:49:32.095Z,89.19
2018-04-17T03:51:59.841Z,89.04
2018-04-17T03:54:27.483Z,88.65
2018-04-17T03:56:55.155Z,88.10
2018-04-17T03:59:22.793Z,88.12
2018-04-17T04:01:50.385Z,88.51
2018-04-17T04:04:18.010Z,89.20
2018-04-17T04:06:45.656Z,88.74
2018-04-17T04:09:13.328Z,88.38
2018-04-17T04:11:40.988Z,88.35
2018-04-17T04:14:08.588Z,89.71
2018-04-17T04:16:47.985Z,89.31
2018-04-17T04:19:27.292Z,88.91
2018-04-17T04:22:06.677Z,89.41
2018-04-17T04:24:45.861Z,89.17
2018-04-17T04:27:13.452Z,89.69
2018-04-17T04:29:42.214Z,89.24
2018-04-17T04:32:09.791Z,89.27
2018-04-17T04:34:38.319Z,88.93
2018-04-17T04:37:05.982Z,88.94
2018-04-17T04:39:33.586Z,89.28
2018-04-17T04:42:01.233Z,89.07
2018-04-17T04:44:28.879Z,89.15
2018-04-17T04:46:56.510Z,88.85
2018-04-17T04:49:24.173Z,88.64
2018-04-17T04:51:51.791Z,89.00
2018-04-17T04:54:19.440Z,88.97
2018-04-17T04:56:47.081Z,88.81
2018-04-17T04:59:14.719Z,89.32
2018-04-17T05:01:42.372Z,89.12
2018-04-17T05:04:10.070Z,88.69
2018-04-17T05:06:37.845Z,88.32
2018-04-17T05:09:06.266Z,88.51
2018-04-17T05:11:33.937Z,89.11
2018-04-17T05:14:01.636Z,88.95
2018-04-17T05:16:29.342Z,88.87
2018-04-17T05:18:57.009Z,90.23
2018-04-17T05:21:24.678Z,90.58
2018-04-17T05:23:52.346Z,90.05
2018-04-17T05:26:20.028Z,88.93
2018-04-17T05:28:47.642Z,89.03
2018-04-17T05:31:15.274Z,89.23
2018-04-17T05:33:42.912Z,88.47
2018-04-17T05:36:10.620Z,88.01
2018-04-17T05:38:38.207Z,88.69
2018-04-17T05:41:05.857Z,88.50
2018-04-17T05:43:33.454Z,88.04
2018-04-17T05:46:01.091Z,87.95
2018-04-17T05:48:28.715Z,87.75
2018-04-17T05:50:56.378Z,87.66
2018-04-17T05:53:24.046Z,88.12
2018-04-17T05:55:51.688Z,88.07
2018-04-17T05:58:19.416Z,88.27
2018-04-17T06:00:47.067Z,87.73
2018-04-17T06:03:14.831Z,87.46
2018-04-17T06:05:42.540Z,87.58
2018-04-17T06:08:10.243Z,88.09
2018-04-17T06:10:37.946Z,87.70
2018-04-17T06:13:05.593Z,87.30
2018-04-17T06:15:33.255Z,86.84
2018-04-17T06:18:00.881Z,86.56
2018-04-17T06:20:28.596Z,85.31
2018-04-17T06:22:56.248Z,84.14
2018-04-17T06:25:23.856Z,87.21
2018-04-17T06:27:51.501Z,87.02
2018-04-17T06:30:19.148Z,86.76
2018-04-17T06:32:46.757Z,86.62
2018-04-17T06:35:14.420Z,86.06
2018-04-17T06:37:42.024Z,86.08
2018-04-17T06:40:09.643Z,86.50
2018-04-17T06:42:37.341Z,85.97
2018-04-17T06:45:04.997Z,85.50
2018-04-17T06:47:32.603Z,85.00
2018-04-17T06:50:00.375Z,84.58
2018-04-17T06:52:28.692Z,82.12
2018-04-17T06:54:56.374Z,81.13
2018-04-17T06:57:24.102Z,80.36
2018-04-17T06:59:51.793Z,79.37
2018-04-17T07:02:19.420Z,79.92
2018-04-17T07:04:47.049Z,78.22
2018-04-17T07:07:14.692Z,76.79
2018-04-17T07:09:42.347Z,78.50
2018-04-17T07:12:10.046Z,78.16
2018-04-17T07:14:37.727Z,75.79
2018-04-17T07:17:05.427Z,75.12
2018-04-17T07:19:33.059Z,75.39
2018-04-17T07:22:00.706Z,75.64
2018-04-17T07:24:28.396Z,75.86
2018-04-17T07:26:56.130Z,71.21
2018-04-17T07:29:23.909Z,70.69
2018-04-17T07:31:51.584Z,69.58
2018-04-17T07:34:19.292Z,70.90
2018-04-17T07:36:46.929Z,68.81
2018-04-17T07:39:15.265Z,68.42
2018-04-17T07:41:42.987Z,67.99
2018-04-17T07:44:11.780Z,69.74
2018-04-17T07:46:39.477Z,66.85
2018-04-17T07:49:07.144Z,67.06
2018-04-17T07:51:34.734Z,62.96
2018-04-17T07:54:02.418Z,62.24
2018-04-17T07:56:30.106Z,62.10
2018-04-17T07:58:57.708Z,62.97
2018-04-17T08:01:25.407Z,60.39
2018-04-17T08:03:53.029Z,61.32
2018-04-17T08:06:21.659Z,60.03
2018-04-17T08:08:49.321Z,60.81
2018-04-17T08:11:17.001Z,59.66
2018-04-17T08:13:44.625Z,61.30
2018-04-17T08:16:12.244Z,62.51
2018-04-17T08:18:39.924Z,62.21
2018-04-17T08:21:07.573Z,58.51
2018-04-17T08:23:35.216Z,59.24
2018-04-17T08:26:02.893Z,60.17
2018-04-17T08:28:31.590Z,57.46
2018-04-17T08:30:59.363Z,58.75
2018-04-17T08:33:26.952Z,57.13
2018-04-17T08:35:54.770Z,58.11
2018-04-17T08:38:22.412Z,58.03
2018-04-17T08:40:50.063Z,58.69
2018-04-17T08:43:17.699Z,55.99
2018-04-17T08:45:45.317Z,53.55
2018-04-17T08:48:12.977Z,55.03
2018-04-17T08:50:40.622Z,54.81
2018-04-17T08:53:08.260Z,54.70
2018-04-17T08:55:36.469Z,52.10
2018-04-17T08:58:04.162Z,52.84
2018-04-17T09:00:31.831Z,52.52
2018-04-17T09:02:59.556Z,50.44
2018-04-17T09:05:27.262Z,51.06
2018-04-17T09:07:54.917Z,48.68
2018-04-17T09:10:22.757Z,49.44
2018-04-17T09:12:51.689Z,49.63
2018-04-17T09:15:20.170Z,48.79
2018-04-17T09:17:47.879Z,49.12
2018-04-17T09:20:15.529Z,48.00
2018-04-17T09:22:43.372Z,48.20
2018-04-17T09:25:11.008Z,49.63
2018-04-17T09:27:38.748Z,49.64
2018-04-17T09:30:06.691Z,48.22
2018-04-17T09:32:34.279Z,47.88
2018-04-17T09:35:01.903Z,45.36
2018-04-17T09:37:29.697Z,43.88
2018-04-17T09:39:58.030Z,47.82
2018-04-17T09:42:25.677Z,44.63
2018-04-17T09:44:53.278Z,45.61
2018-04-17T09:47:21.012Z,45.41
2018-04-17T09:49:48.630Z,47.04
2018-04-17T09:52:16.281Z,46.26
2018-04-17T09:54:44.072Z,42.22
2018-04-17T09:57:11.732Z,44.38
2018-04-17T09:59:39.598Z,44.33
2018-04-17T10:02:08.062Z,45.47
2018-04-17T10:04:35.782Z,45.06
2018-04-17T10:07:03.411Z,44.61
2018-04-17T10:09:31.057Z,43.85
2018-04-17T10:11:59.610Z,44.61
2018-04-17T10:14:27.257Z,43.66
2018-04-17T10:16:54.873Z,44.34
2018-04-17T10:19:22.549Z,45.34
2018-04-17T10:21:50.202Z,45.80
2018-04-17T10:24:17.875Z,45.44
2018-04-17T10:26:45.606Z,45.16
2018-04-17T10:29:13.215Z,45.33
2018-04-17T10:31:40.923Z,45.28
2018-04-17T10:34:08.539Z,44.27
2018-04-17T10:36:36.207Z,45.80
2018-04-17T10:39:03.934Z,44.48
2018-04-17T10:41:31.580Z,45.77
2018-04-17T10:43:59.185Z,44.00
2018-04-17T10:46:26.836Z,44.16
2018-04-17T10:48:54.445Z,44.25
2018-04-17T10:51:22.106Z,41.82
2018-04-17T10:53:49.797Z,44.00
2018-04-17T10:56:17.403Z,43.76
2018-04-17T10:58:45.089Z,43.41
2018-04-17T11:01:12.711Z,44.31
2018-04-17T11:03:40.391Z,41.44
2018-04-17T11:06:08.022Z,43.60
2018-04-17T11:08:36.867Z,42.67
2018-04-17T11:11:04.496Z,42.42
2018-04-17T11:13:32.295Z,42.80
2018-04-17T11:15:59.916Z,42.98
2018-04-17T11:18:27.675Z,43.38
2018-04-17T11:20:55.342Z,42.57
2018-04-17T11:23:22.983Z,44.35
2018-04-17T11:25:50.617Z,43.42
2018-04-17T11:28:18.305Z,42.87
2018-04-17T11:30:46.010Z,44.30
2018-04-17T11:33:13.667Z,44.14
2018-04-17T11:35:41.319Z,43.78
2018-04-17T11:38:08.934Z,43.52
2018-04-17T11:40:36.630Z,40.52
2018-04-17T11:43:04.390Z,40.47
2018-04-17T11:45:31.986Z,39.21
2018-04-17T11:47:59.654Z,38.46
2018-04-17T11:50:27.294Z,39.11
2018-04-17T11:52:55.015Z,39.73
2018-04-17T11:55:22.642Z,40.28
2018-04-17T11:57:50.303Z,40.39
2018-04-17T12:00:17.962Z,40.62
2018-04-17T12:02:45.582Z,41.87
2018-04-17T12:05:14.238Z,42.55
2018-04-17T12:07:41.880Z,41.84
2018-04-17T12:10:09.605Z,42.85
2018-04-17T12:12:38.460Z,42.25
2018-04-17T12:15:06.096Z,42.42
2018-04-17T12:17:33.796Z,41.68
2018-04-17T12:20:01.448Z,40.01
2018-04-17T12:22:29.126Z,41.31
2018-04-17T12:24:56.799Z,41.48
2018-04-17T12:27:24.469Z,42.75
2018-04-17T12:29:52.116Z,41.58
2018-04-17T12:32:19.716Z,41.83
2018-04-17T12:34:47.389Z,42.57
2018-04-17T12:37:14.979Z,43.31
2018-04-17T12:39:42.646Z,42.48
2018-04-17T12:42:10.274Z,43.18
2018-04-17T12:44:37.999Z,42.84
2018-04-17T12:47:05.618Z,43.78
2018-04-17T12:49:33.235Z,44.71
2018-04-17T12:52:00.999Z,43.31
2018-04-17T12:54:28.616Z,43.92
2018-04-17T12:56:56.332Z,44.16
2018-04-17T12:59:23.948Z,43.08
2018-04-17T13:01:51.611Z,44.40
2018-04-17T13:04:19.257Z,43.69
2018-04-17T13:06:46.927Z,45.03
2018-04-17T13:09:14.597Z,43.71
2018-04-17T13:11:42.207Z,42.87
2018-04-17T13:14:09.938Z,43.58
2018-04-17T13:16:37.571Z,41.79
2018-04-17T13:19:05.267Z,43.72
2018-04-17T13:21:32.869Z,41.98
2018-04-17T13:24:00.576Z,41.78
2018-04-17T13:26:28.228Z,41.83
2018-04-17T13:28:55.896Z,40.46
2018-04-17T13:31:23.518Z,41.52
2018-04-17T13:33:51.174Z,40.83
2018-04-17T13:36:18.888Z,41.26
2018-04-17T13:38:46.572Z,41.59
2018-04-17T13:41:14.281Z,40.46
2018-04-17T13:43:42.013Z,38.51
2018-04-17T13:46:09.639Z,37.82
2018-04-17T13:48:37.352Z,38.13
2018-04-17T13:51:05.089Z,40.26
2018-04-17T13:53:32.756Z,39.54
2018-04-17T13:56:00.874Z,40.01
2018-04-17T13:58:31.508Z,40.42
2018-04-17T14:00:59.167Z,34.01
2018-04-17T14:03:26.845Z,35.79
2018-04-17T14:05:54.517Z,33.36
2018-04-17T14:08:22.203Z,35.19
2018-04-17T14:10:49.779Z,36.32
2018-04-17T14:13:17.534Z,36.94
2018-04-17T14:15:45.231Z,36.23
2018-04-17T14:18:12.856Z,36.30
2018-04-17T14:20:40.547Z,36.39
2018-04-17T14:23:08.252Z,36.37
2018-04-17T14:25:36.029Z,36.70
2018-04-17T14:28:04.466Z,37.23
2018-04-17T14:30:32.872Z,35.53
2018-04-17T14:33:00.533Z,36.20
2018-04-17T14:35:28.186Z,36.72
2018-04-17T14:37:55.986Z,36.49
2018-04-17T14:40:23.726Z,35.73
2018-04-17T14:42:51.415Z,35.95
2018-04-17T14:45:19.114Z,34.62
2018-04-17T14:47:46.789Z,34.62
2018-04-17T14:50:14.504Z,37.08
2018-04-17T14:52:42.231Z,37.19
2018-04-17T14:55:09.901Z,33.50
2018-04-17T14:57:37.666Z,34.56
2018-04-17T15:00:06.053Z,35.89
2018-04-17T15:02:33.701Z,35.91
2018-04-17T15:05:03.678Z,34.46
2018-04-17T15:07:31.591Z,34.97
2018-04-17T15:09:59.216Z,35.98
2018-04-17T15:12:26.958Z,35.76
2018-04-17T15:14:54.700Z,35.84
2018-04-17T15:17:22.315Z,36.20
2018-04-17T15:19:50.049Z,35.41
2018-04-17T15:22:17.782Z,31.53
2018-04-17T15:24:45.486Z,34.51
2018-04-17T15:27:13.174Z,34.04
2018-04-17T15:29:40.892Z,32.24
2018-04-17T15:32:08.657Z,33.16
2018-04-17T15:34:36.388Z,33.91
2018-04-17T15:37:04.156Z,32.04
2018-04-17T15:39:31.968Z,32.54
2018-04-17T15:42:01.667Z,32.76
2018-04-17T15:44:29.534Z,33.98
2018-04-17T15:46:58.765Z,32.61
2018-04-17T15:49:26.628Z,32.87
2018-04-17T15:51:54.433Z,34.08
2018-04-17T15:54:22.614Z,32.72
2018-04-17T15:56:50.254Z,34.48
2018-04-17T15:59:17.999Z,33.46
2018-04-17T16:01:45.715Z,37.53
2018-04-17T16:04:13.343Z,40.39
2018-04-17T16:06:41.014Z,36.91
2018-04-17T16:09:08.759Z,36.86
2018-04-17T16:11:36.408Z,36.34
2018-04-17T16:14:04.240Z,35.83
2018-04-17T16:16:35.001Z,36.70
2018-04-17T16:19:02.665Z,37.31
2018-04-17T16:21:31.064Z,36.80
2018-04-17T16:23:58.799Z,36.88
2018-04-17T16:26:26.521Z,38.13
2018-04-17T16:28:54.928Z,37.50
2018-04-17T16:31:22.887Z,38.31
2018-04-17T16:33:51.457Z,38.65
2018-04-17T16:36:20.361Z,38.49
2018-04-17T16:38:48.212Z,39.36
2018-04-17T16:41:16.695Z,37.68
2018-04-17T16:43:46.388Z,38.18
2018-04-17T16:46:14.264Z,38.05
2018-04-17T16:48:41.979Z,38.74
2018-04-17T16:51:10.473Z,38.88
2018-04-17T16:53:38.836Z,39.53
2018-04-17T16:56:06.507Z,41.10
2018-04-17T16:58:34.206Z,41.14
2018-04-17T17:01:01.950Z,42.46
2018-04-17T17:03:29.576Z,42.52
2018-04-17T17:05:57.310Z,42.93
2018-04-17T17:08:24.975Z,43.64
2018-04-17T17:10:53.771Z,43.10
2018-04-17T17:13:21.507Z,43.98
2018-04-17T17:15:49.155Z,44.31
2018-04-17T17:18:16.897Z,46.01
2018-04-17T17:20:44.628Z,45.07
2018-04-17T17:23:12.720Z,45.39
2018-04-17T17:25:40.560Z,46.11
2018-04-17T17:28:08.331Z,46.05
2018-04-17T17:30:36.664Z,46.83
2018-04-17T17:33:05.693Z,47.48
2018-04-17T17:35:33.530Z,46.57
2018-04-17T17:38:01.207Z,46.38
2018-04-17T17:40:28.914Z,49.25
2018-04-17T17:42:57.797Z,49.94
2018-04-17T17:45:26.638Z,50.49
2018-04-17T17:47:54.302Z,52.34
2018-04-17T17:50:22.118Z,52.71
2018-04-17T17:52:49.860Z,52.37
2018-04-17T17:55:17.596Z,51.62
2018-04-17T17:57:45.315Z,52.40
2018-04-17T18:00:13.056Z,52.77
2018-04-17T18:02:40.881Z,53.50
2018-04-17T18:05:08.903Z,53.38
2018-04-17T18:07:36.645Z,54.25
2018-04-17T18:10:04.525Z,54.39
2018-04-17T18:12:33.454Z,54.57
2018-04-17T18:15:01.173Z,55.25
2018-04-17T18:17:28.990Z,55.14
2018-04-17T18:19:57.907Z,55.98
2018-04-17T18:22:25.731Z,56.14
2018-04-17T18:24:53.465Z,55.79
2018-04-17T18:27:21.263Z,56.39
2018-04-17T18:29:49.077Z,55.74
2018-04-17T18:32:16.899Z,56.63
2018-04-17T18:34:44.582Z,55.99
2018-04-17T18:37:12.418Z,56.38
2018-04-17T18:39:40.204Z,56.11
2018-04-17T18:42:07.911Z,57.39
2018-04-17T18:44:35.621Z,57.70
2018-04-17T18:47:03.362Z,57.84
2018-04-17T18:49:31.502Z,57.06
2018-04-17T18:51:59.255Z,57.14
2018-04-17T18:54:26.991Z,57.00
2018-04-17T18:56:54.873Z,57.19
2018-04-17T18:59:24.036Z,58.68
2018-04-17T19:01:52.781Z,59.57
2018-04-17T19:04:20.479Z,59.01
2018-04-17T19:06:48.243Z,58.40
2018-04-17T19:09:15.943Z,59.48
2018-04-17T19:11:45.839Z,59.25
2018-04-17T19:14:13.699Z,60.47
2018-04-17T19:16:41.405Z,60.15
2018-04-17T19:19:10.875Z,60.28
2018-04-17T19:21:38.616Z,61.18
2018-04-17T19:24:07.947Z,61.14
2018-04-17T19:26:35.719Z,63.32
2018-04-17T19:29:03.516Z,62.76
2018-04-17T19:31:31.293Z,62.31
2018-04-17T19:33:59.868Z,62.61
2018-04-17T19:36:27.508Z,61.78
2018-04-17T19:38:55.579Z,61.73
2018-04-17T19:41:23.289Z,61.72
2018-04-17T19:43:51.996Z,62.07
2018-04-17T19:46:20.863Z,61.67
2018-04-17T19:48:48.653Z,62.41
2018-04-17T19:51:16.362Z,63.57
2018-04-17T19:53:44.047Z,62.57
2018-04-17T19:56:11.857Z,63.33
2018-04-17T19:58:39.693Z,63.73
2018-04-17T20:01:07.670Z,63.34
2018-04-17T20:03:36.989Z,63.67
2018-04-17T20:06:04.851Z,63.59
2018-04-17T20:08:33.451Z,63.94
2018-04-17T20:11:01.329Z,64.27
2018-04-17T20:13:29.153Z,64.28
2018-04-17T20:15:56.885Z,64.70
2018-04-17T20:18:24.748Z,64.52
2018-04-17T20:20:52.441Z,64.66
2018-04-17T20:23:20.621Z,65.80
2018-04-17T20:25:48.305Z,65.75
2018-04-17T20:28:15.940Z,65.43
2018-04-17T20:30:43.808Z,66.99
2018-04-17T20:33:11.433Z,66.94
2018-04-17T20:35:39.066Z,66.74
2018-04-17T20:38:06.743Z,67.19
2018-04-17T20:40:34.419Z,66.87
2018-04-17T20:43:02.160Z,67.11
2018-04-17T20:45:31.129Z,66.73
2018-04-17T20:47:58.779Z,66.54
2018-04-17T20:50:26.490Z,67.40
2018-04-17T20:52:54.294Z,66.55
2018-04-17T20:55:23.227Z,67.27
2018-04-17T20:57:51.847Z,67.82
2018-04-17T21:00:19.700Z,69.35
2018-04-17T21:02:47.581Z,69.43
2018-04-17T21:05:18.100Z,68.63
2018-04-17T21:07:46.722Z,68.89
2018-04-17T21:10:14.722Z,69.75
2018-04-17T21:12:42.489Z,69.05
2018-04-17T21:15:10.140Z,68.11
2018-04-17T21:17:37.846Z,68.05
2018-04-17T21:20:05.451Z,68.64
2018-04-17T21:22:33.130Z,69.46
2018-04-17T21:25:00.874Z,68.60
2018-04-17T21:27:28.614Z,68.33
2018-04-17T21:29:56.286Z,69.86
2018-04-17T21:32:23.947Z,70.68
2018-04-17T21:34:51.653Z,70.40
2018-04-17T21:37:19.307Z,69.68
2018-04-17T21:39:47.380Z,69.09
2018-04-17T21:42:15.067Z,69.35
2018-04-17T21:44:42.680Z,69.16
2018-04-17T21:47:10.326Z,69.96
2018-04-17T21:49:37.992Z,70.00
2018-04-17T21:52:05.669Z,70.13
2018-04-17T21:54:33.352Z,70.79
2018-04-17T21:57:00.976Z,70.76
2018-04-17T21:59:28.589Z,70.84
2018-04-17T22:01:56.238Z,70.16
2018-04-17T22:04:23.927Z,71.22
2018-04-17T22:06:51.641Z,70.88
2018-04-17T22:09:19.303Z,71.37
2018-04-17T22:11:46.975Z,69.84
2018-04-17T22:14:14.628Z,70.49
2018-04-17T22:16:43.220Z,70.48
2018-04-17T22:19:10.845Z,70.75
2018-04-17T22:21:38.558Z,72.59
2018-04-17T22:24:06.219Z,71.80
2018-04-17T22:26:33.852Z,71.54
2018-04-17T22:29:01.445Z,71.54
2018-04-17T22:31:29.195Z,72.36
2018-04-17T22:33:56.803Z,72.17
2018-04-17T22:36:24.452Z,72.17
2018-04-17T22:38:52.155Z,73.75
2018-04-17T22:41:19.837Z,73.92
2018-04-17T22:43:47.551Z,72.26
2018-04-17T22:46:15.221Z,72.29
2018-04-17T22:48:42.892Z,72.43
2018-04-17T22:51:10.621Z,72.84
2018-04-17T22:53:38.331Z,72.63
2018-04-17T22:56:06.007Z,72.45
2018-04-17T22:58:33.692Z,72.79
2018-04-17T23:01:01.352Z,73.04
2018-04-17T23:03:29.011Z,72.47
2018-04-17T23:05:56.638Z,72.81
2018-04-17T23:08:24.239Z,73.38
2018-04-17T23:10:51.924Z,73.58
2018-04-17T23:13:19.575Z,74.16
2018-04-17T23:15:47.211Z,74.33
2018-04-17T23:18:14.865Z,74.61
2018-04-17T23:20:42.481Z,75.12
2018-04-17T23:23:10.122Z,75.28
2018-04-17T23:25:37.729Z,74.89
2018-04-17T23:28:05.368Z,74.87
2018-04-17T23:30:32.951Z,74.37
2018-04-17T23:33:00.589Z,74.38
2018-04-17T23:35:28.240Z,75.92
2018-04-17T23:37:55.813Z,75.19
2018-04-17T23:40:23.485Z,73.59
2018-04-17T23:42:51.065Z,74.81
2018-04-17T23:45:18.701Z,75.45
2018-04-17T23:47:46.343Z,76.42
2018-04-17T23:50:13.952Z,76.44
2018-04-17T23:52:41.552Z,75.71
2018-04-17T23:55:09.251Z,75.24
2018-04-17T23:57:36.930Z,75.18
